Eskdale, West Virginia
Current Conditions -  °F | °C
As of 10:54 AM on Tuesday 21 Oct 2014 (Local Time) from KCRW Reporting Station
Light Rain Light Rain  
Wind Chill: 53°   Ceiling: 400
Heat Index: 53°   Visibility: 2mi
Dew Point: 50°   Wind: 9mph
Humidity: 89%   Direction: 280°W
Pressure: 29.94"   Gusts: 16mph
Location:  38.09°N, 81.44°W
Report Text: KCRW 211454Z 28008G14KT 2SM -RA BR BKN004 OVC010 12/10 A2994 RMK AO2 SLP136 BKN V OVC P0000 60000 T01170100 53009
Loading
Personal Weather Stations






























Interactive Weather Map
Tropical Storm Tracking
New forecast layout! Learn more

10-Day Weather Forecast

Advertisements
Track Severe Weather on mobile